createdAt,value
2019-03-12T00:02:25.822Z,55.20
2019-03-12T00:04:56.148Z,55.31
2019-03-12T00:07:29.400Z,55.34
2019-03-12T00:10:02.698Z,55.30
2019-03-12T00:12:33.285Z,55.00
2019-03-12T00:15:04.732Z,55.40
2019-03-12T00:17:34.916Z,55.14
2019-03-12T00:20:09.171Z,55.39
2019-03-12T00:22:39.561Z,55.40
2019-03-12T00:25:10.637Z,55.03
2019-03-12T00:27:42.207Z,55.13
2019-03-12T00:30:13.963Z,55.69
2019-03-12T00:32:46.817Z,55.89
2019-03-12T00:35:18.508Z,55.40
2019-03-12T00:37:49.877Z,56.43
2019-03-12T00:40:21.126Z,56.47
2019-03-12T00:42:53.321Z,56.58
2019-03-12T00:45:24.795Z,55.46
2019-03-12T00:47:55.908Z,55.92
2019-03-12T00:50:27.235Z,55.36
2019-03-12T00:52:58.682Z,55.48
2019-03-12T00:55:31.267Z,55.81
2019-03-12T00:58:01.895Z,56.46
2019-03-12T01:00:33.427Z,55.91
2019-03-12T01:03:04.968Z,56.22
2019-03-12T01:05:38.049Z,55.80
2019-03-12T01:08:09.491Z,56.12
2019-03-12T01:10:41.088Z,55.62
2019-03-12T01:13:15.244Z,55.94
2019-03-12T01:15:48.660Z,56.29
2019-03-12T01:18:20.042Z,56.98
2019-03-12T01:20:51.281Z,56.49
2019-03-12T01:23:22.900Z,56.50
2019-03-12T01:25:56.441Z,56.69
2019-03-12T01:28:27.591Z,56.52
2019-03-12T01:30:58.731Z,55.75
2019-03-12T01:33:29.137Z,55.64
2019-03-12T01:36:00.511Z,55.19
2019-03-12T01:38:34.089Z,56.21
2019-03-12T01:41:04.832Z,56.65
2019-03-12T01:43:35.728Z,56.95
2019-03-12T01:46:06.232Z,56.67
2019-03-12T01:48:37.989Z,56.94
2019-03-12T01:51:11.776Z,57.06
2019-03-12T01:53:43.298Z,56.75
2019-03-12T01:56:14.921Z,56.85
2019-03-12T01:58:45.338Z,56.01
2019-03-12T02:01:18.748Z,56.25
2019-03-12T02:03:49.437Z,57.05
2019-03-12T02:06:20.836Z,57.45
2019-03-12T02:08:51.772Z,57.78
2019-03-12T02:11:26.279Z,57.34
2019-03-12T02:13:59.281Z,57.41
2019-03-12T02:16:30.663Z,58.16
2019-03-12T02:19:02.285Z,57.35
2019-03-12T02:21:35.027Z,57.84
2019-03-12T02:24:07.515Z,59.02
2019-03-12T02:26:39.055Z,58.29
2019-03-12T02:29:10.453Z,58.12
2019-03-12T02:31:41.667Z,57.96
2019-03-12T02:34:15.187Z,58.68
2019-03-12T02:36:46.431Z,58.94
2019-03-12T02:39:16.750Z,59.52
2019-03-12T02:41:47.449Z,60.56
2019-03-12T02:44:17.809Z,58.98
2019-03-12T02:46:49.888Z,59.72
2019-03-12T02:49:21.060Z,58.92
2019-03-12T02:51:52.506Z,59.99
2019-03-12T02:54:23.712Z,60.23
2019-03-12T02:56:56.906Z,60.66
2019-03-12T02:59:30.909Z,60.56
2019-03-12T03:02:01.664Z,60.97
2019-03-12T03:04:33.009Z,60.23
2019-03-12T03:07:06.239Z,59.75
2019-03-12T03:09:37.610Z,60.39
2019-03-12T03:12:09.158Z,59.53
2019-03-12T03:14:40.628Z,59.82
2019-03-12T03:17:14.589Z,59.42
2019-03-12T03:19:46.950Z,59.73
2019-03-12T03:22:17.770Z,62.11
2019-03-12T03:24:49.450Z,61.70
2019-03-12T03:27:21.941Z,61.94
2019-03-12T03:29:55.529Z,61.90
2019-03-12T03:32:27.174Z,63.21
2019-03-12T03:34:57.895Z,62.43
2019-03-12T03:37:28.593Z,62.19
2019-03-12T03:40:01.562Z,60.51
2019-03-12T03:42:31.999Z,61.05
2019-03-12T03:45:03.150Z,61.65
2019-03-12T03:47:35.802Z,62.06
2019-03-12T03:50:10.669Z,62.87
2019-03-12T03:52:42.023Z,63.19
2019-03-12T03:55:14.639Z,63.06
2019-03-12T03:57:46.319Z,64.14
2019-03-12T04:00:21.254Z,64.43
2019-03-12T04:02:52.904Z,65.70
2019-03-12T04:05:23.499Z,65.53
2019-03-12T04:07:54.914Z,64.18
2019-03-12T04:10:27.191Z,64.73
2019-03-12T04:12:57.990Z,62.38
2019-03-12T04:15:28.273Z,63.91
2019-03-12T04:17:59.552Z,64.56
2019-03-12T04:20:30.925Z,66.33
2019-03-12T04:23:03.915Z,67.65
2019-03-12T04:25:36.212Z,65.96
2019-03-12T04:28:07.676Z,68.15
2019-03-12T04:30:38.409Z,66.92
2019-03-12T04:33:14.035Z,66.29
2019-03-12T04:35:44.863Z,66.11
2019-03-12T04:38:15.606Z,65.34
2019-03-12T04:40:47.182Z,64.73
2019-03-12T04:43:17.963Z,66.55
2019-03-12T04:45:51.683Z,66.55
2019-03-12T04:48:23.094Z,67.68
2019-03-12T04:50:53.752Z,66.52
2019-03-12T04:53:25.203Z,66.04
2019-03-12T04:55:58.923Z,66.89
2019-03-12T04:58:29.591Z,66.87
2019-03-12T05:01:00.654Z,66.38
2019-03-12T05:03:31.029Z,66.86
2019-03-12T05:06:02.051Z,68.01
2019-03-12T05:08:35.402Z,67.12
2019-03-12T05:11:06.855Z,66.47
2019-03-12T05:13:37.414Z,68.26
2019-03-12T05:16:08.491Z,67.68
2019-03-12T05:18:39.483Z,68.75
2019-03-12T05:21:13.232Z,67.50
2019-03-12T05:23:43.731Z,67.44
2019-03-12T05:26:14.757Z,66.71
2019-03-12T05:28:45.644Z,66.64
2019-03-12T05:31:16.134Z,66.85
2019-03-12T05:33:50.018Z,66.94
2019-03-12T05:36:21.503Z,68.23
2019-03-12T05:38:52.864Z,67.34
2019-03-12T05:41:24.431Z,66.97
2019-03-12T05:43:57.936Z,65.92
2019-03-12T05:46:28.840Z,67.37
2019-03-12T05:49:00.122Z,68.30
2019-03-12T05:51:30.679Z,67.95
2019-03-12T05:54:01.211Z,67.25
2019-03-12T05:56:33.414Z,66.76
2019-03-12T05:59:04.966Z,66.55
2019-03-12T06:01:36.397Z,66.84
2019-03-12T06:04:10.321Z,67.54
2019-03-12T06:06:42.464Z,68.45
2019-03-12T06:09:29.441Z,66.52
2019-03-12T06:11:50.572Z,66.99
2019-03-12T06:14:24.247Z,68.31
2019-03-12T06:16:56.064Z,67.55
2019-03-12T06:19:26.546Z,66.13
2019-03-12T06:21:58.229Z,65.84
2019-03-12T06:24:28.686Z,66.14
2019-03-12T06:27:14.342Z,67.28
2019-03-12T06:29:47.447Z,67.05
2019-03-12T06:32:19.908Z,67.26
2019-03-12T06:34:53.129Z,67.55
2019-03-12T06:37:29.541Z,68.65
2019-03-12T06:40:05.163Z,66.62
2019-03-12T06:42:44.549Z,65.55
2019-03-12T06:45:17.264Z,66.66
2019-03-12T06:47:50.415Z,65.57
2019-03-12T06:50:33.612Z,66.52
2019-03-12T06:53:17.037Z,66.88
2019-03-12T06:55:56.108Z,66.43
2019-03-12T06:58:32.108Z,65.68
2019-03-12T07:01:16.541Z,65.85
2019-03-12T07:04:05.127Z,64.92
2019-03-12T07:06:54.590Z,64.16
2019-03-12T07:09:42.438Z,65.12
2019-03-12T07:12:30.887Z,64.23
2019-03-12T07:15:03.950Z,64.89
2019-03-12T07:17:48.312Z,65.32
2019-03-12T07:20:21.000Z,64.38
2019-03-12T07:23:08.385Z,63.94
2019-03-12T07:25:50.526Z,63.21
2019-03-12T07:28:20.955Z,62.58
2019-03-12T07:30:56.502Z,62.27
2019-03-12T07:33:30.185Z,60.81
2019-03-12T07:36:03.935Z,61.91
2019-03-12T07:38:52.536Z,61.31
2019-03-12T07:41:31.925Z,60.77
2019-03-12T07:44:08.356Z,60.66
2019-03-12T07:47:08.275Z,59.70
2019-03-12T07:49:52.304Z,58.99
2019-03-12T07:52:39.604Z,59.50
2019-03-12T07:55:29.888Z,59.14
2019-03-12T07:58:07.555Z,58.50
2019-03-12T08:00:42.700Z,58.07
2019-03-12T08:03:15.556Z,56.81
2019-03-12T08:06:05.524Z,55.80
2019-03-12T08:08:42.904Z,54.98
2019-03-12T08:11:19.309Z,53.61
2019-03-12T08:13:50.954Z,53.94
2019-03-12T08:16:39.062Z,53.55
2019-03-12T08:19:11.487Z,53.43
2019-03-12T08:21:49.679Z,54.04
2019-03-12T08:24:38.518Z,52.05
2019-03-12T08:27:26.137Z,51.32
2019-03-12T08:29:57.766Z,50.64
2019-03-12T08:32:42.154Z,47.80
2019-03-12T08:35:20.176Z,46.70
2019-03-12T08:37:58.153Z,47.17
2019-03-12T08:40:33.695Z,46.26
2019-03-12T08:43:15.046Z,44.39
2019-03-12T08:45:48.865Z,42.95
2019-03-12T08:48:33.063Z,40.61
2019-03-12T08:51:05.563Z,37.58
2019-03-12T08:53:43.126Z,30.14
2019-03-12T08:56:27.746Z,30.65
2019-03-12T08:59:00.538Z,32.82
2019-03-12T09:01:47.389Z,28.77
2019-03-12T09:04:35.490Z,29.19
2019-03-12T09:07:07.601Z,30.98
2019-03-12T09:09:40.482Z,33.01
2019-03-12T09:12:15.683Z,32.86
2019-03-12T09:14:48.906Z,33.89
2019-03-12T09:17:29.275Z,32.02
2019-03-12T09:20:10.277Z,37.77
2019-03-12T09:22:43.200Z,40.15
2019-03-12T09:25:17.015Z,39.39
2019-03-12T09:28:17.305Z,38.27
2019-03-12T09:30:49.799Z,33.85
2019-03-12T09:33:28.217Z,31.89
2019-03-12T09:36:02.128Z,33.53
2019-03-12T09:38:35.288Z,32.78
2019-03-12T09:41:08.045Z,28.29
2019-03-12T09:43:42.390Z,28.62
2019-03-12T09:46:18.380Z,30.13
2019-03-12T09:49:06.117Z,33.83
2019-03-12T09:51:44.339Z,32.72
2019-03-12T09:54:23.623Z,40.47
2019-03-12T09:57:07.962Z,36.86
2019-03-12T09:59:49.699Z,36.57
2019-03-12T10:02:31.287Z,36.25
2019-03-12T10:05:12.099Z,37.58
2019-03-12T10:07:53.785Z,36.29
2019-03-12T10:10:30.728Z,39.67
2019-03-12T10:13:07.824Z,39.73
2019-03-12T10:15:49.704Z,40.11
2019-03-12T10:18:26.045Z,37.14
2019-03-12T10:21:09.718Z,40.68
2019-03-12T10:23:57.939Z,38.66
2019-03-12T10:26:34.162Z,29.67
2019-03-12T10:29:22.588Z,35.11
2019-03-12T10:32:01.765Z,34.51
2019-03-12T10:34:43.657Z,37.50
2019-03-12T10:37:27.606Z,38.35
2019-03-12T10:40:23.609Z,36.57
2019-03-12T10:43:05.328Z,34.05
2019-03-12T10:45:38.959Z,29.72
2019-03-12T10:48:11.837Z,22.59
2019-03-12T10:50:42.777Z,18.05
2019-03-12T10:53:14.305Z,31.46
2019-03-12T10:55:47.156Z,33.76
2019-03-12T10:58:18.064Z,34.24
2019-03-12T11:00:49.697Z,36.54
2019-03-12T11:03:20.525Z,37.67
2019-03-12T11:05:55.339Z,37.27
2019-03-12T11:08:27.798Z,38.47
2019-03-12T11:10:59.177Z,35.18
2019-03-12T11:13:30.753Z,35.53
2019-03-12T11:16:01.546Z,35.48
2019-03-12T11:18:34.939Z,35.95
2019-03-12T11:21:05.582Z,38.24
2019-03-12T11:23:37.222Z,37.74
2019-03-12T11:26:08.072Z,37.00
2019-03-12T11:28:41.666Z,34.40
2019-03-12T11:31:12.697Z,31.71
2019-03-12T11:33:43.776Z,30.61
2019-03-12T11:36:14.309Z,35.08
2019-03-12T11:38:45.744Z,36.76
2019-03-12T11:41:19.153Z,38.98
2019-03-12T11:43:50.489Z,40.53
2019-03-12T11:46:22.115Z,40.66
2019-03-12T11:48:53.789Z,41.59
2019-03-12T11:51:26.564Z,42.43
2019-03-12T11:53:57.157Z,42.12
2019-03-12T11:56:28.708Z,42.29
2019-03-12T11:58:59.398Z,42.70
2019-03-12T12:01:30.475Z,42.67
2019-03-12T12:04:07.802Z,42.74
2019-03-12T12:06:42.522Z,42.29
2019-03-12T12:09:12.542Z,42.82
2019-03-12T12:11:45.973Z,42.92
2019-03-12T12:14:19.651Z,42.78
2019-03-12T12:16:50.855Z,42.14
2019-03-12T12:19:26.861Z,42.17
2019-03-12T12:21:57.705Z,42.05
2019-03-12T12:24:29.162Z,41.16
2019-03-12T12:27:01.817Z,41.39
2019-03-12T12:29:36.398Z,41.06
2019-03-12T12:32:07.703Z,41.33
2019-03-12T12:34:39.245Z,41.38
2019-03-12T12:37:13.691Z,40.96
2019-03-12T12:39:45.219Z,41.08
2019-03-12T12:42:16.075Z,41.06
2019-03-12T12:44:47.306Z,40.17
2019-03-12T12:47:18.138Z,40.70
2019-03-12T12:49:49.045Z,40.27
2019-03-12T12:52:23.164Z,39.08
2019-03-12T12:54:54.191Z,39.12
2019-03-12T12:57:26.086Z,39.46
2019-03-12T12:59:57.823Z,38.98
2019-03-12T13:02:31.601Z,38.50
2019-03-12T13:05:02.703Z,38.58
2019-03-12T13:07:33.137Z,37.88
2019-03-12T13:10:03.856Z,38.35
2019-03-12T13:12:38.304Z,38.62
2019-03-12T13:15:12.274Z,35.90
2019-03-12T13:17:45.037Z,35.44
2019-03-12T13:20:15.523Z,36.37
2019-03-12T13:22:49.226Z,36.21
2019-03-12T13:25:19.562Z,35.21
2019-03-12T13:27:51.178Z,34.15
2019-03-12T13:30:25.493Z,33.79
2019-03-12T13:32:58.988Z,34.35
2019-03-12T13:35:29.430Z,35.15
2019-03-12T13:38:00.935Z,34.06
2019-03-12T13:40:32.489Z,34.38
2019-03-12T13:43:06.015Z,34.51
2019-03-12T13:45:36.704Z,34.69
2019-03-12T13:48:08.590Z,35.31
2019-03-12T13:50:40.078Z,35.16
2019-03-12T13:53:15.947Z,34.98
2019-03-12T13:55:47.365Z,34.90
2019-03-12T13:58:18.452Z,35.57
2019-03-12T14:00:50.059Z,35.56
2019-03-12T14:03:23.081Z,34.81
2019-03-12T14:05:54.833Z,34.80
2019-03-12T14:08:25.362Z,34.28
2019-03-12T14:10:56.170Z,34.31
2019-03-12T14:13:27.702Z,34.93
2019-03-12T14:16:01.636Z,34.54
2019-03-12T14:18:34.022Z,34.67
2019-03-12T14:21:09.183Z,34.70
2019-03-12T14:23:48.737Z,34.76
2019-03-12T14:26:20.212Z,34.95
2019-03-12T14:28:52.711Z,35.29
2019-03-12T14:31:26.109Z,36.40
2019-03-12T14:33:58.029Z,35.82
2019-03-12T14:36:29.608Z,35.91
2019-03-12T14:39:02.531Z,36.41
2019-03-12T14:41:35.554Z,36.34
2019-03-12T14:44:06.334Z,36.47
2019-03-12T14:46:37.842Z,35.29
2019-03-12T14:49:09.584Z,35.47
2019-03-12T14:51:44.495Z,35.78
2019-03-12T14:54:15.357Z,36.00
2019-03-12T14:56:47.826Z,36.05
2019-03-12T14:59:18.462Z,35.74
2019-03-12T15:01:52.783Z,36.03
2019-03-12T15:04:25.190Z,36.39
2019-03-12T15:06:55.798Z,36.31
2019-03-12T15:09:27.850Z,36.35
2019-03-12T15:12:01.816Z,36.17
2019-03-12T15:14:33.575Z,35.19
2019-03-12T15:17:04.436Z,35.47
2019-03-12T15:19:41.493Z,35.26
2019-03-12T15:22:12.658Z,34.04
2019-03-12T15:24:43.477Z,33.94
2019-03-12T15:27:14.389Z,33.98
2019-03-12T15:29:46.301Z,33.67
2019-03-12T15:32:19.350Z,33.84
2019-03-12T15:34:50.198Z,33.58
2019-03-12T15:37:22.152Z,33.96
2019-03-12T15:39:53.586Z,33.89
2019-03-12T15:42:28.076Z,33.75
2019-03-12T15:44:58.798Z,34.23
2019-03-12T15:47:30.420Z,34.15
2019-03-12T15:50:01.347Z,33.86
2019-03-12T15:52:33.347Z,33.77
2019-03-12T15:55:06.900Z,33.56
2019-03-12T15:57:38.355Z,33.60
2019-03-12T16:00:19.329Z,32.38
2019-03-12T16:02:50.117Z,32.22
2019-03-12T16:05:20.923Z,32.49
2019-03-12T16:07:52.080Z,32.35
2019-03-12T16:10:22.937Z,31.75
2019-03-12T16:12:57.203Z,32.07
2019-03-12T16:15:28.947Z,31.83
2019-03-12T16:18:00.406Z,31.71
2019-03-12T16:20:35.338Z,31.79
2019-03-12T16:23:06.953Z,31.88
2019-03-12T16:25:38.825Z,31.60
2019-03-12T16:28:10.302Z,31.46
2019-03-12T16:30:40.950Z,31.49
2019-03-12T16:33:13.890Z,31.29
2019-03-12T16:35:45.669Z,31.49
2019-03-12T16:38:16.560Z,31.42
2019-03-12T16:40:47.288Z,30.91
2019-03-12T16:43:18.075Z,30.93
2019-03-12T16:45:52.006Z,30.45
2019-03-12T16:51:12.716Z,30.09
2019-03-12T16:53:44.187Z,30.47
2019-03-12T16:56:18.256Z,30.42
2019-03-12T16:58:51.298Z,30.35
2019-03-12T17:01:24.590Z,30.21
2019-03-12T17:04:00.314Z,30.24
2019-03-12T17:06:31.012Z,30.01
2019-03-12T17:09:01.546Z,29.96
2019-03-12T17:11:32.310Z,29.75
2019-03-12T17:14:05.475Z,29.21
2019-03-12T17:16:36.846Z,29.46
2019-03-12T17:19:09.360Z,29.29
2019-03-12T17:21:40.066Z,29.17
2019-03-12T17:24:11.916Z,28.97
2019-03-12T17:26:45.466Z,29.30
2019-03-12T17:29:16.606Z,29.40
2019-03-12T17:31:47.870Z,29.67
2019-03-12T17:34:18.542Z,29.67
2019-03-12T17:36:50.358Z,29.76
2019-03-12T17:39:24.114Z,29.83
2019-03-12T17:41:56.263Z,29.74
2019-03-12T17:44:27.299Z,29.81
2019-03-12T17:46:59.175Z,29.56
2019-03-12T17:49:35.195Z,30.01
2019-03-12T17:52:06.558Z,29.98
2019-03-12T17:54:39.552Z,29.77
2019-03-12T17:57:13.829Z,29.65
2019-03-12T17:59:48.816Z,29.36
2019-03-12T18:02:19.461Z,29.54
2019-03-12T18:04:56.331Z,29.46
2019-03-12T18:07:38.501Z,29.62
2019-03-12T18:10:14.828Z,29.65
2019-03-12T18:12:45.456Z,29.83
2019-03-12T18:15:23.571Z,29.98
2019-03-12T18:17:55.497Z,30.16
2019-03-12T18:20:27.468Z,30.24
2019-03-12T18:22:59.525Z,30.45
2019-03-12T18:25:39.546Z,30.46
2019-03-12T18:28:11.346Z,30.69
2019-03-12T18:30:42.797Z,30.67
2019-03-12T18:33:16.885Z,30.88
2019-03-12T18:35:47.981Z,30.94
2019-03-12T18:38:19.782Z,31.05
2019-03-12T18:40:50.500Z,30.80
2019-03-12T18:43:24.388Z,31.04
2019-03-12T18:45:56.394Z,31.00
2019-03-12T18:48:26.989Z,31.00
2019-03-12T18:50:57.524Z,31.02
2019-03-12T18:53:28.925Z,30.97
2019-03-12T18:56:02.282Z,30.87
2019-03-12T18:58:34.280Z,30.58
2019-03-12T19:01:05.918Z,30.66
2019-03-12T19:03:36.520Z,30.48
2019-03-12T19:06:10.158Z,30.54
2019-03-12T19:08:48.077Z,30.58
2019-03-12T19:11:25.620Z,30.66
2019-03-12T19:13:57.671Z,30.67
2019-03-12T19:16:29.895Z,30.77
2019-03-12T19:19:01.193Z,30.87
2019-03-12T19:21:34.577Z,30.81
2019-03-12T19:24:18.233Z,30.83
2019-03-12T19:26:51.601Z,31.02
2019-03-12T19:29:23.460Z,31.21
2019-03-12T19:32:03.431Z,31.61
2019-03-12T19:34:34.597Z,31.71
2019-03-12T19:37:06.400Z,31.86
2019-03-12T19:39:37.857Z,31.95
2019-03-12T19:42:08.424Z,32.36
2019-03-12T19:44:41.398Z,32.54
2019-03-12T19:47:12.767Z,32.99
2019-03-12T19:49:45.114Z,33.34
2019-03-12T19:52:16.124Z,33.88
2019-03-12T19:54:49.335Z,34.20
2019-03-12T19:57:20.503Z,34.48
2019-03-12T19:59:51.411Z,34.79
2019-03-12T20:02:22.751Z,34.69
2019-03-12T20:04:53.219Z,34.87
2019-03-12T20:07:26.735Z,34.98
2019-03-12T20:10:00.847Z,34.93
2019-03-12T20:12:35.307Z,35.21
2019-03-12T20:15:28.633Z,35.33
2019-03-12T20:18:22.786Z,35.42
2019-03-12T20:21:19.043Z,35.45
2019-03-12T20:24:20.125Z,35.58
2019-03-12T20:27:18.012Z,35.74
2019-03-12T20:30:19.772Z,35.93
2019-03-12T20:33:00.614Z,36.28
2019-03-12T20:36:07.650Z,36.54
2019-03-12T20:39:03.625Z,36.61
2019-03-12T20:41:59.929Z,36.70
2019-03-12T20:44:58.218Z,36.86
2019-03-12T20:47:40.811Z,37.22
2019-03-12T20:50:39.837Z,37.39
2019-03-12T20:53:26.006Z,37.43
2019-03-12T20:56:08.224Z,37.76
2019-03-12T20:58:57.160Z,37.80
2019-03-12T21:02:03.087Z,37.82
2019-03-12T21:04:51.637Z,38.07
2019-03-12T21:07:46.959Z,38.11
2019-03-12T21:10:48.582Z,38.31
2019-03-12T21:13:28.728Z,38.31
2019-03-12T21:16:27.564Z,38.05
2019-03-12T21:19:32.864Z,37.97
2019-03-12T21:22:11.449Z,37.88
2019-03-12T21:24:57.202Z,39.52
2019-03-12T21:27:42.466Z,40.89
2019-03-12T21:30:12.432Z,40.61
2019-03-12T21:32:43.515Z,40.70
2019-03-12T21:35:16.500Z,41.43
2019-03-12T21:37:46.929Z,42.62
2019-03-12T21:40:18.560Z,43.95
2019-03-12T21:42:50.217Z,44.37
2019-03-12T21:45:24.559Z,44.37
2019-03-12T21:48:01.030Z,45.45
2019-03-12T21:50:31.841Z,46.05
2019-03-12T21:53:02.787Z,45.97
2019-03-12T21:55:37.811Z,46.63
2019-03-12T21:58:09.385Z,46.36
2019-03-12T22:00:41.607Z,46.69
2019-03-12T22:03:16.561Z,47.50
2019-03-12T22:05:48.025Z,47.56
2019-03-12T22:08:19.202Z,47.97
2019-03-12T22:10:50.771Z,49.11
2019-03-12T22:13:24.711Z,50.39
2019-03-12T22:15:56.435Z,49.88
2019-03-12T22:18:29.854Z,51.01
2019-03-12T22:21:00.898Z,51.32
2019-03-12T22:23:36.251Z,51.15
2019-03-12T22:26:07.931Z,51.61
2019-03-12T22:28:39.368Z,52.14
2019-03-12T22:31:11.121Z,52.64
2019-03-12T22:33:45.393Z,53.48
2019-03-12T22:36:17.297Z,54.08
2019-03-12T22:38:47.787Z,53.71
2019-03-12T22:41:18.492Z,54.30
2019-03-12T22:43:51.069Z,52.42
2019-03-12T22:46:22.929Z,51.83
2019-03-12T22:48:54.939Z,52.20
2019-03-12T22:51:25.457Z,51.08
2019-03-12T22:53:59.424Z,51.51
2019-03-12T22:56:31.964Z,51.13
2019-03-12T22:59:03.102Z,50.39
2019-03-12T23:01:34.071Z,50.09
2019-03-12T23:04:04.839Z,51.00
2019-03-12T23:06:38.026Z,52.34
2019-03-12T23:09:09.708Z,53.64
2019-03-12T23:11:41.331Z,54.63
2019-03-12T23:14:12.549Z,55.29
2019-03-12T23:16:47.181Z,56.13
2019-03-12T23:19:17.817Z,56.96
2019-03-12T23:21:49.115Z,58.30
2019-03-12T23:24:20.151Z,59.29
2019-03-12T23:26:56.362Z,59.59
2019-03-12T23:29:27.305Z,59.98
2019-03-12T23:31:57.699Z,57.45
2019-03-12T23:34:29.062Z,56.99
2019-03-12T23:37:10.461Z,55.27
2019-03-12T23:39:42.421Z,58.80
2019-03-12T23:42:14.708Z,60.03
2019-03-12T23:44:49.514Z,63.70
2019-03-12T23:47:21.566Z,62.71
2019-03-12T23:49:53.027Z,61.24
2019-03-12T23:52:23.452Z,61.21
2019-03-12T23:54:57.484Z,60.35
2019-03-12T23:57:29.496Z,59.31
